Runge, Texas
Current Conditions -  °F | °C
As of 12:15 AM on Thursday 23 Oct 2014 (Local Time) from KBEA Reporting Station
Clear Clear  
Wind Chill: 68°   Ceiling: Unl
Heat Index: 68°   Visibility: 10mi
Dew Point: 63°   Wind: 6mph
Humidity: 84%   Direction: 90°E
Pressure: 30.07"   Gusts: NA
Location:  28.88°N, 97.71°W
Report Text: KBEA 230515Z AUTO 09005KT 10SM CLR 20/17 A3007 RMK AO2 T02000172
Loading
Personal Weather Stations






























Interactive Weather Map
Tropical Storm Tracking
New forecast layout! Learn more

10-Day Weather Forecast

Advertisements
Track Severe Weather on mobile